LEPP Airport Information

Runway Information
Runway 15 Length 0 ft width 0 ft
Elevation 1468 ft Threshold 0 ft Heading 0
Runway 33 Length 0 ft Width 0 ft
Elevation 1500 ft Threshold 0 ft Heading 0
Runway 16 Length 7241 ft width 148 ft
Elevation 1468 ft Threshold 0 ft Heading 152
Runway 34 Length 7241 ft Width 148 ft
Elevation 1504 ft Threshold 984 ft Heading 332
Airport Frequencies
Type APP Name APP Frequency 118.2 MHZ
Type GND Name GND Frequency 121.7 MHZ
Type TWR Name TWR Frequency 118.2 MHZ
Airport Navaids
Type NDB Name Pamplona Frequency 422 KHZ
Type VOR-DME Name Pamplona Frequency 113550 KHZ
Type VOR-DME Name Pamplona Frequency 112300 KHZ
Airport Weather Information & NOTAM
ADDS - METARS form results

(0832 UTC 18 July 2018)
 
METAR text: LEPP 180800Z 00000KT CAVOK 20/16 Q1016
Conditions at: LEPP (PAMPLONA/NOAIN , ES) observed 0800 UTC 18 July 2018
Temperature: 20.0°C (68°F)
Dewpoint: 16.0°C (61°F) [RH = 78%]
Pressure (altimeter): 30.00 inches Hg (1016.0 mb)
Winds: calm
Visibility: 6 or more miles (10+ km)
Ceiling: ceiling and visibility are OK
Clouds: unknown
Weather: no significant weather observed at this time